King Salmon Airport (AKN/PAKN)




Flight Aircraft Arriving
GRZ5370 SF34
PACD - Cold Bay Airport
United StatesAlaska Cold Bay, Alaska
GRZ5376 SF34
PADL - Dillingham Airport
United StatesAlaska Dillingham, Alaska
GRZ5378 SF34
PABE - Bethel Airport
United StatesAlaska Bethel, Alaska
GRZ5380 SF34
PANI - Aniak Airport
United StatesAlaska Aniak, Alaska
Flight Aircraft Departing
GRZ5371 SF34
PACD - Cold Bay Airport
United StatesAlaska Cold Bay, Alaska
GRZ5377 SF34
PADL - Dillingham Airport
United StatesAlaska Dillingham, Alaska
GRZ5379 SF34
PABE - Bethel Airport
United StatesAlaska Bethel, Alaska
GRZ5381 SF34
PANI - Aniak Airport
United StatesAlaska Aniak, Alaska
Airport Information
Location: King Salmon, US
Coordinates: 58.6765 / -156.649
Elevation:
Time Offset:
Local Time:
UTC Time:
Jet A Price: $1.2/lbs

Current Weather
METAR: PAKN 050554Z 20011KT 10SM OVC015 03/00 A2998 RMK AO2 SLP152 T00280000 10072 20028 58010
TAF: PAKN 050529Z 0506/0606 19010KT P6SM BKN025 FM050800 20015G25KT 6SM -RA BKN015 WS020/25040KT FM051200 22015KT P6SM VCSH SCT025 BKN050

Recent Arrivals
Date Flight Type Depart
Recent Departures
Date Flight Type Arrive